sensor_id;sensor_type;location;lat;lon;timestamp;temperature;humidity
2489;DHT22;1255;48.716;9.124;2024-01-11T00:00:52;-5.60;99.90
2489;DHT22;1255;48.716;9.124;2024-01-11T00:03:20;-5.60;99.90
2489;DHT22;1255;48.716;9.124;2024-01-11T00:05:47;-5.60;99.90
2489;DHT22;1255;48.716;9.124;2024-01-11T00:08:14;-5.70;99.90
2489;DHT22;1255;48.716;9.124;2024-01-11T00:10:40;-5.70;99.90
2489;DHT22;1255;48.716;9.124;2024-01-11T00:13:07;-5.70;99.90
2489;DHT22;1255;48.716;9.124;2024-01-11T00:15:34;-5.70;99.90
2489;DHT22;1255;48.716;9.124;2024-01-11T00:18:00;-5.70;99.90
2489;DHT22;1255;48.716;9.124;2024-01-11T00:20:29;-5.80;99.90
2489;DHT22;1255;48.716;9.124;2024-01-11T00:22:55;-5.80;99.90
2489;DHT22;1255;48.716;9.124;2024-01-11T00:25:22;-5.80;99.90
2489;DHT22;1255;48.716;9.124;2024-01-11T00:27:49;-5.80;99.90
2489;DHT22;1255;48.716;9.124;2024-01-11T00:30:16;-5.80;99.90
2489;DHT22;1255;48.716;9.124;2024-01-11T00:32:42;-5.80;99.90
2489;DHT22;1255;48.716;9.124;2024-01-11T00:35:09;-5.80;99.90
2489;DHT22;1255;48.716;9.124;2024-01-11T00:37:37;-5.80;99.90
2489;DHT22;1255;48.716;9.124;2024-01-11T00:40:05;-5.90;99.90
2489;DHT22;1255;48.716;9.124;2024-01-11T00:42:32;-5.90;99.90
2489;DHT22;1255;48.716;9.124;2024-01-11T00:45:00;-5.90;99.90
2489;DHT22;1255;48.716;9.124;2024-01-11T00:47:27;-5.90;99.90
2489;DHT22;1255;48.716;9.124;2024-01-11T00:49:53;-5.90;99.90
2489;DHT22;1255;48.716;9.124;2024-01-11T00:52:20;-5.90;99.90
2489;DHT22;1255;48.716;9.124;2024-01-11T00:54:48;-5.90;99.90
2489;DHT22;1255;48.716;9.124;2024-01-11T00:57:15;-5.90;99.90
2489;DHT22;1255;48.716;9.124;2024-01-11T00:59:41;-5.90;99.90
2489;DHT22;1255;48.716;9.124;2024-01-11T01:02:08;-5.90;99.90
2489;DHT22;1255;48.716;9.124;2024-01-11T01:04:37;-5.90;99.90
2489;DHT22;1255;48.716;9.124;2024-01-11T01:07:04;-6.00;99.90
2489;DHT22;1255;48.716;9.124;2024-01-11T01:09:31;-6.00;99.90
2489;DHT22;1255;48.716;9.124;2024-01-11T01:11:59;-5.90;99.90
2489;DHT22;1255;48.716;9.124;2024-01-11T01:14:26;-5.90;99.90
2489;DHT22;1255;48.716;9.124;2024-01-11T01:16:53;-5.90;99.90
2489;DHT22;1255;48.716;9.124;2024-01-11T01:19:19;-5.90;99.90
2489;DHT22;1255;48.716;9.124;2024-01-11T01:21:46;-5.90;99.90
2489;DHT22;1255;48.716;9.124;2024-01-11T01:24:13;-6.00;99.90
2489;DHT22;1255;48.716;9.124;2024-01-11T01:26:39;-6.00;99.90
2489;DHT22;1255;48.716;9.124;2024-01-11T01:29:08;-6.00;99.90
2489;DHT22;1255;48.716;9.124;2024-01-11T01:31:35;-6.00;99.90
2489;DHT22;1255;48.716;9.124;2024-01-11T01:34:03;-6.00;99.90
2489;DHT22;1255;48.716;9.124;2024-01-11T01:36:30;-6.00;99.90
2489;DHT22;1255;48.716;9.124;2024-01-11T01:38:56;-6.00;99.90
2489;DHT22;1255;48.716;9.124;2024-01-11T01:41:23;-6.00;99.90
2489;DHT22;1255;48.716;9.124;2024-01-11T01:43:50;-6.00;99.90
2489;DHT22;1255;48.716;9.124;2024-01-11T01:46:21;-6.00;99.90
2489;DHT22;1255;48.716;9.124;2024-01-11T01:48:49;-6.00;99.90
2489;DHT22;1255;48.716;9.124;2024-01-11T01:51:16;-6.00;99.90
2489;DHT22;1255;48.716;9.124;2024-01-11T01:53:44;-6.00;99.90
2489;DHT22;1255;48.716;9.124;2024-01-11T01:56:11;-6.00;99.90
2489;DHT22;1255;48.716;9.124;2024-01-11T01:58:38;-6.00;99.90
2489;DHT22;1255;48.716;9.124;2024-01-11T02:01:05;-6.00;99.90
2489;DHT22;1255;48.716;9.124;2024-01-11T02:03:35;-6.00;99.90
2489;DHT22;1255;48.716;9.124;2024-01-11T02:06:03;-6.10;99.90
2489;DHT22;1255;48.716;9.124;2024-01-11T02:08:31;-6.10;99.90
2489;DHT22;1255;48.716;9.124;2024-01-11T02:10:59;-6.10;99.90
2489;DHT22;1255;48.716;9.124;2024-01-11T02:13:26;-6.10;99.90
2489;DHT22;1255;48.716;9.124;2024-01-11T02:15:53;-6.10;99.90
2489;DHT22;1255;48.716;9.124;2024-01-11T02:18:20;-6.10;99.90
2489;DHT22;1255;48.716;9.124;2024-01-11T02:20:48;-6.10;99.90
2489;DHT22;1255;48.716;9.124;2024-01-11T02:23:17;-6.10;99.90
2489;DHT22;1255;48.716;9.124;2024-01-11T02:25:47;-6.10;99.90
2489;DHT22;1255;48.716;9.124;2024-01-11T02:28:14;-6.10;99.90
2489;DHT22;1255;48.716;9.124;2024-01-11T02:30:41;-6.10;99.90
2489;DHT22;1255;48.716;9.124;2024-01-11T02:33:08;-6.10;99.90
2489;DHT22;1255;48.716;9.124;2024-01-11T02:35:35;-6.10;99.90
2489;DHT22;1255;48.716;9.124;2024-01-11T02:38:04;-6.10;99.90
2489;DHT22;1255;48.716;9.124;2024-01-11T02:40:32;-6.10;99.90
2489;DHT22;1255;48.716;9.124;2024-01-11T02:43:07;-6.20;99.90
2489;DHT22;1255;48.716;9.124;2024-01-11T02:45:34;-6.10;99.90
2489;DHT22;1255;48.716;9.124;2024-01-11T02:48:00;-6.10;99.90
2489;DHT22;1255;48.716;9.124;2024-01-11T02:50:27;-6.20;99.90
2489;DHT22;1255;48.716;9.124;2024-01-11T02:52:54;-6.20;99.90
2489;DHT22;1255;48.716;9.124;2024-01-11T02:55:20;-6.20;99.90
2489;DHT22;1255;48.716;9.124;2024-01-11T02:57:47;-6.20;99.90
2489;DHT22;1255;48.716;9.124;2024-01-11T03:00:15;-6.20;99.90
2489;DHT22;1255;48.716;9.124;2024-01-11T03:02:42;-6.30;99.90
2489;DHT22;1255;48.716;9.124;2024-01-11T03:05:09;-6.30;99.90
2489;DHT22;1255;48.716;9.124;2024-01-11T03:07:36;-6.30;99.90
2489;DHT22;1255;48.716;9.124;2024-01-11T03:10:03;-6.40;99.90
2489;DHT22;1255;48.716;9.124;2024-01-11T03:12:29;-6.40;99.90
2489;DHT22;1255;48.716;9.124;2024-01-11T03:14:56;-6.40;99.90
2489;DHT22;1255;48.716;9.124;2024-01-11T03:17:24;-6.40;99.90
2489;DHT22;1255;48.716;9.124;2024-01-11T03:19:51;-6.40;99.90
2489;DHT22;1255;48.716;9.124;2024-01-11T03:22:17;-6.40;99.90
2489;DHT22;1255;48.716;9.124;2024-01-11T03:24:44;-6.40;99.90
2489;DHT22;1255;48.716;9.124;2024-01-11T03:27:11;-6.40;99.90
2489;DHT22;1255;48.716;9.124;2024-01-11T03:29:37;-6.40;99.90
2489;DHT22;1255;48.716;9.124;2024-01-11T03:32:05;-6.40;99.90
2489;DHT22;1255;48.716;9.124;2024-01-11T03:34:33;-6.40;99.90
2489;DHT22;1255;48.716;9.124;2024-01-11T03:37:00;-6.40;99.90
2489;DHT22;1255;48.716;9.124;2024-01-11T03:39:26;-6.40;99.90
2489;DHT22;1255;48.716;9.124;2024-01-11T03:41:53;-6.40;99.90
2489;DHT22;1255;48.716;9.124;2024-01-11T03:44:20;-6.40;99.90
2489;DHT22;1255;48.716;9.124;2024-01-11T03:46:46;-6.40;99.90
2489;DHT22;1255;48.716;9.124;2024-01-11T03:49:13;-6.50;99.90
2489;DHT22;1255;48.716;9.124;2024-01-11T03:51:41;-6.40;99.90
2489;DHT22;1255;48.716;9.124;2024-01-11T03:54:08;-6.50;99.90
2489;DHT22;1255;48.716;9.124;2024-01-11T03:56:37;-6.50;99.90
2489;DHT22;1255;48.716;9.124;2024-01-11T03:59:04;-6.50;99.90
2489;DHT22;1255;48.716;9.124;2024-01-11T04:01:32;-6.50;99.90
2489;DHT22;1255;48.716;9.124;2024-01-11T04:04:00;-6.50;99.90
2489;DHT22;1255;48.716;9.124;2024-01-11T04:06:27;-6.40;99.90
2489;DHT22;1255;48.716;9.124;2024-01-11T04:08:55;-6.40;99.90
2489;DHT22;1255;48.716;9.124;2024-01-11T04:11:22;-6.40;99.90
2489;DHT22;1255;48.716;9.124;2024-01-11T04:13:48;-6.50;99.90
2489;DHT22;1255;48.716;9.124;2024-01-11T04:16:15;-6.50;99.90
2489;DHT22;1255;48.716;9.124;2024-01-11T04:18:42;-6.50;99.90
2489;DHT22;1255;48.716;9.124;2024-01-11T04:21:20;-6.60;99.90
2489;DHT22;1255;48.716;9.124;2024-01-11T04:23:47;-6.60;99.90
2489;DHT22;1255;48.716;9.124;2024-01-11T04:26:15;-6.60;99.90
2489;DHT22;1255;48.716;9.124;2024-01-11T04:28:43;-6.60;99.90
2489;DHT22;1255;48.716;9.124;2024-01-11T04:31:09;-6.60;99.90
2489;DHT22;1255;48.716;9.124;2024-01-11T04:33:39;-6.60;99.90
2489;DHT22;1255;48.716;9.124;2024-01-11T04:36:06;-6.60;99.90
2489;DHT22;1255;48.716;9.124;2024-01-11T04:38:33;-6.60;99.90
2489;DHT22;1255;48.716;9.124;2024-01-11T04:41:00;-6.60;99.90
2489;DHT22;1255;48.716;9.124;2024-01-11T04:43:28;-6.60;99.90
2489;DHT22;1255;48.716;9.124;2024-01-11T04:45:55;-6.70;99.90
2489;DHT22;1255;48.716;9.124;2024-01-11T04:48:22;-6.70;99.90
2489;DHT22;1255;48.716;9.124;2024-01-11T04:50:48;-6.70;99.90
2489;DHT22;1255;48.716;9.124;2024-01-11T04:53:15;-6.70;99.90
2489;DHT22;1255;48.716;9.124;2024-01-11T04:55:42;-6.70;99.90
2489;DHT22;1255;48.716;9.124;2024-01-11T04:58:08;-6.60;99.90
2489;DHT22;1255;48.716;9.124;2024-01-11T05:00:36;-6.60;99.90
2489;DHT22;1255;48.716;9.124;2024-01-11T05:03:03;-6.60;99.90
2489;DHT22;1255;48.716;9.124;2024-01-11T05:05:30;-6.60;99.90
2489;DHT22;1255;48.716;9.124;2024-01-11T05:07:57;-6.60;99.90
2489;DHT22;1255;48.716;9.124;2024-01-11T05:10:24;-6.60;99.90
2489;DHT22;1255;48.716;9.124;2024-01-11T05:12:51;-6.60;99.90
2489;DHT22;1255;48.716;9.124;2024-01-11T05:15:17;-6.60;99.90
2489;DHT22;1255;48.716;9.124;2024-01-11T05:17:45;-6.60;99.90
2489;DHT22;1255;48.716;9.124;2024-01-11T05:20:12;-6.60;99.90
2489;DHT22;1255;48.716;9.124;2024-01-11T05:22:39;-6.70;99.90
2489;DHT22;1255;48.716;9.124;2024-01-11T05:25:06;-6.70;99.90
2489;DHT22;1255;48.716;9.124;2024-01-11T05:27:32;-6.70;99.90
2489;DHT22;1255;48.716;9.124;2024-01-11T05:29:59;-6.70;99.90
2489;DHT22;1255;48.716;9.124;2024-01-11T05:32:26;-6.70;99.90
2489;DHT22;1255;48.716;9.124;2024-01-11T05:34:54;-6.80;99.90
2489;DHT22;1255;48.716;9.124;2024-01-11T05:37:21;-6.80;99.90
2489;DHT22;1255;48.716;9.124;2024-01-11T05:39:47;-6.80;99.90
2489;DHT22;1255;48.716;9.124;2024-01-11T05:42:14;-6.80;99.90
2489;DHT22;1255;48.716;9.124;2024-01-11T05:44:41;-6.80;99.90
2489;DHT22;1255;48.716;9.124;2024-01-11T05:47:08;-6.80;99.90
2489;DHT22;1255;48.716;9.124;2024-01-11T05:49:35;-6.80;99.90
2489;DHT22;1255;48.716;9.124;2024-01-11T05:52:03;-6.80;99.90
2489;DHT22;1255;48.716;9.124;2024-01-11T05:54:30;-6.80;99.90
2489;DHT22;1255;48.716;9.124;2024-01-11T05:56:57;-6.80;99.90
2489;DHT22;1255;48.716;9.124;2024-01-11T05:59:24;-6.80;99.90
2489;DHT22;1255;48.716;9.124;2024-01-11T06:01:51;-6.70;99.90
2489;DHT22;1255;48.716;9.124;2024-01-11T06:04:18;-6.70;99.90
2489;DHT22;1255;48.716;9.124;2024-01-11T06:06:45;-6.80;99.90
2489;DHT22;1255;48.716;9.124;2024-01-11T06:09:13;-6.80;99.90
2489;DHT22;1255;48.716;9.124;2024-01-11T06:11:39;-6.80;99.90
2489;DHT22;1255;48.716;9.124;2024-01-11T06:14:06;-6.80;99.90
2489;DHT22;1255;48.716;9.124;2024-01-11T06:16:33;-6.70;99.90
2489;DHT22;1255;48.716;9.124;2024-01-11T06:19:00;-6.70;99.90
2489;DHT22;1255;48.716;9.124;2024-01-11T06:21:27;-6.70;99.90
2489;DHT22;1255;48.716;9.124;2024-01-11T06:23:54;-6.70;99.90
2489;DHT22;1255;48.716;9.124;2024-01-11T06:26:22;-6.70;99.90
2489;DHT22;1255;48.716;9.124;2024-01-11T06:28:48;-6.70;99.90
2489;DHT22;1255;48.716;9.124;2024-01-11T06:31:15;-6.70;99.90
2489;DHT22;1255;48.716;9.124;2024-01-11T06:33:43;-6.60;99.90
2489;DHT22;1255;48.716;9.124;2024-01-11T06:36:10;-6.70;99.90
2489;DHT22;1255;48.716;9.124;2024-01-11T06:38:36;-6.70;99.90
2489;DHT22;1255;48.716;9.124;2024-01-11T06:41:03;-6.70;99.90
2489;DHT22;1255;48.716;9.124;2024-01-11T06:43:31;-6.80;99.90
2489;DHT22;1255;48.716;9.124;2024-01-11T06:46:02;-6.80;99.90
2489;DHT22;1255;48.716;9.124;2024-01-11T06:48:29;-6.80;99.90
2489;DHT22;1255;48.716;9.124;2024-01-11T06:50:56;-6.80;99.90
2489;DHT22;1255;48.716;9.124;2024-01-11T06:53:23;-6.70;99.90
2489;DHT22;1255;48.716;9.124;2024-01-11T06:55:50;-6.70;99.90
2489;DHT22;1255;48.716;9.124;2024-01-11T06:58:20;-6.70;99.90
2489;DHT22;1255;48.716;9.124;2024-01-11T07:00:48;-6.70;99.90
2489;DHT22;1255;48.716;9.124;2024-01-11T07:03:15;-6.80;99.90
2489;DHT22;1255;48.716;9.124;2024-01-11T07:05:42;-6.80;99.90
2489;DHT22;1255;48.716;9.124;2024-01-11T07:08:09;-6.80;99.90
2489;DHT22;1255;48.716;9.124;2024-01-11T07:10:35;-6.80;99.90
2489;DHT22;1255;48.716;9.124;2024-01-11T07:13:03;-6.80;99.90
2489;DHT22;1255;48.716;9.124;2024-01-11T07:15:30;-6.80;99.90
2489;DHT22;1255;48.716;9.124;2024-01-11T07:17:59;-6.70;99.90
2489;DHT22;1255;48.716;9.124;2024-01-11T07:20:25;-6.70;99.90
2489;DHT22;1255;48.716;9.124;2024-01-11T07:22:52;-6.70;99.90
2489;DHT22;1255;48.716;9.124;2024-01-11T07:25:19;-6.70;99.90
2489;DHT22;1255;48.716;9.124;2024-01-11T07:27:45;-6.70;99.90
2489;DHT22;1255;48.716;9.124;2024-01-11T07:30:13;-6.60;99.90
2489;DHT22;1255;48.716;9.124;2024-01-11T07:32:39;-6.20;99.90
2489;DHT22;1255;48.716;9.124;2024-01-11T07:35:08;-6.20;99.90
2489;DHT22;1255;48.716;9.124;2024-01-11T07:37:36;-6.20;99.90
2489;DHT22;1255;48.716;9.124;2024-01-11T07:40:03;-6.30;99.90
2489;DHT22;1255;48.716;9.124;2024-01-11T07:42:30;-6.40;99.90
2489;DHT22;1255;48.716;9.124;2024-01-11T07:44:57;-6.40;99.90
2489;DHT22;1255;48.716;9.124;2024-01-11T07:47:24;-6.40;99.90
2489;DHT22;1255;48.716;9.124;2024-01-11T07:49:50;-6.30;99.90
2489;DHT22;1255;48.716;9.124;2024-01-11T07:52:18;-6.30;99.90
2489;DHT22;1255;48.716;9.124;2024-01-11T07:54:45;-6.20;99.90
2489;DHT22;1255;48.716;9.124;2024-01-11T07:57:12;-6.20;99.90
2489;DHT22;1255;48.716;9.124;2024-01-11T07:59:39;-6.10;99.90
2489;DHT22;1255;48.716;9.124;2024-01-11T08:02:06;-6.00;99.90
2489;DHT22;1255;48.716;9.124;2024-01-11T08:04:33;-5.90;99.90
2489;DHT22;1255;48.716;9.124;2024-01-11T08:07:00;-5.70;99.90
2489;DHT22;1255;48.716;9.124;2024-01-11T08:09:28;-5.50;99.90
2489;DHT22;1255;48.716;9.124;2024-01-11T08:11:56;-5.20;99.90
2489;DHT22;1255;48.716;9.124;2024-01-11T08:14:23;-4.80;99.90
2489;DHT22;1255;48.716;9.124;2024-01-11T08:16:51;-4.40;99.90
2489;DHT22;1255;48.716;9.124;2024-01-11T08:19:19;-3.80;99.90
2489;DHT22;1255;48.716;9.124;2024-01-11T08:21:45;-3.20;99.90
2489;DHT22;1255;48.716;9.124;2024-01-11T08:24:12;-2.60;99.90
2489;DHT22;1255;48.716;9.124;2024-01-11T08:26:39;-2.10;99.90
2489;DHT22;1255;48.716;9.124;2024-01-11T08:29:06;-1.50;99.90
2489;DHT22;1255;48.716;9.124;2024-01-11T08:31:34;-1.00;99.90
2489;DHT22;1255;48.716;9.124;2024-01-11T08:34:01;-0.60;99.90
2489;DHT22;1255;48.716;9.124;2024-01-11T08:36:31;-0.20;99.90
2489;DHT22;1255;48.716;9.124;2024-01-11T08:38:58;0.30;99.90
2489;DHT22;1255;48.716;9.124;2024-01-11T08:41:25;0.70;99.90
2489;DHT22;1255;48.716;9.124;2024-01-11T08:43:53;1.20;99.90
2489;DHT22;1255;48.716;9.124;2024-01-11T08:46:24;1.60;99.90
2489;DHT22;1255;48.716;9.124;2024-01-11T08:48:51;1.80;99.90
2489;DHT22;1255;48.716;9.124;2024-01-11T08:51:18;2.10;99.90
2489;DHT22;1255;48.716;9.124;2024-01-11T08:53:44;2.30;99.90
2489;DHT22;1255;48.716;9.124;2024-01-11T08:56:11;2.60;99.90
2489;DHT22;1255;48.716;9.124;2024-01-11T08:58:39;2.90;99.90
2489;DHT22;1255;48.716;9.124;2024-01-11T09:01:07;3.10;99.90
2489;DHT22;1255;48.716;9.124;2024-01-11T09:03:34;3.10;99.90
2489;DHT22;1255;48.716;9.124;2024-01-11T09:06:01;3.10;99.90
2489;DHT22;1255;48.716;9.124;2024-01-11T09:08:28;3.00;99.90
2489;DHT22;1255;48.716;9.124;2024-01-11T09:10:55;2.80;99.90
2489;DHT22;1255;48.716;9.124;2024-01-11T09:13:23;2.80;99.90
2489;DHT22;1255;48.716;9.124;2024-01-11T09:15:51;2.70;99.90
2489;DHT22;1255;48.716;9.124;2024-01-11T09:18:19;2.60;99.90
2489;DHT22;1255;48.716;9.124;2024-01-11T09:20:46;2.40;99.90
2489;DHT22;1255;48.716;9.124;2024-01-11T09:23:14;2.30;99.90
2489;DHT22;1255;48.716;9.124;2024-01-11T09:25:41;2.40;99.90
2489;DHT22;1255;48.716;9.124;2024-01-11T09:28:08;3.10;99.90
2489;DHT22;1255;48.716;9.124;2024-01-11T09:30:34;4.50;99.90
2489;DHT22;1255;48.716;9.124;2024-01-11T09:33:01;5.80;99.90
2489;DHT22;1255;48.716;9.124;2024-01-11T09:35:29;6.20;99.80
2489;DHT22;1255;48.716;9.124;2024-01-11T09:37:56;6.90;99.40
2489;DHT22;1255;48.716;9.124;2024-01-11T09:40:23;8.50;97.60
2489;DHT22;1255;48.716;9.124;2024-01-11T09:42:49;10.10;95.80
2489;DHT22;1255;48.716;9.124;2024-01-11T09:45:16;11.10;94.40
2489;DHT22;1255;48.716;9.124;2024-01-11T09:47:44;11.70;93.00
2489;DHT22;1255;48.716;9.124;2024-01-11T09:50:13;12.70;91.20
2489;DHT22;1255;48.716;9.124;2024-01-11T09:52:45;13.60;90.30
2489;DHT22;1255;48.716;9.124;2024-01-11T09:55:14;14.00;87.80
2489;DHT22;1255;48.716;9.124;2024-01-11T09:57:44;13.80;87.90
2489;DHT22;1255;48.716;9.124;2024-01-11T10:00:13;13.50;86.10
2489;DHT22;1255;48.716;9.124;2024-01-11T10:02:40;13.80;86.60
2489;DHT22;1255;48.716;9.124;2024-01-11T10:05:07;14.20;85.60
2489;DHT22;1255;48.716;9.124;2024-01-11T10:07:34;14.20;84.70
2489;DHT22;1255;48.716;9.124;2024-01-11T10:10:03;14.20;84.50
2489;DHT22;1255;48.716;9.124;2024-01-11T10:12:30;13.90;83.60
2489;DHT22;1255;48.716;9.124;2024-01-11T10:15:05;14.00;83.80
2489;DHT22;1255;48.716;9.124;2024-01-11T10:17:31;14.70;82.50
2489;DHT22;1255;48.716;9.124;2024-01-11T10:20:01;14.60;80.40
2489;DHT22;1255;48.716;9.124;2024-01-11T10:22:28;14.90;80.90
2489;DHT22;1255;48.716;9.124;2024-01-11T10:25:09;15.30;80.20
2489;DHT22;1255;48.716;9.124;2024-01-11T10:27:37;16.20;78.30
2489;DHT22;1255;48.716;9.124;2024-01-11T10:30:06;16.30;80.20
2489;DHT22;1255;48.716;9.124;2024-01-11T10:32:34;16.70;78.20
2489;DHT22;1255;48.716;9.124;2024-01-11T10:35:01;17.70;76.30
2489;DHT22;1255;48.716;9.124;2024-01-11T10:37:30;17.40;76.40
2489;DHT22;1255;48.716;9.124;2024-01-11T10:40:02;16.90;77.10
2489;DHT22;1255;48.716;9.124;2024-01-11T10:42:31;17.40;76.20
2489;DHT22;1255;48.716;9.124;2024-01-11T10:45:02;17.40;76.70
2489;DHT22;1255;48.716;9.124;2024-01-11T10:47:31;17.30;75.60
2489;DHT22;1255;48.716;9.124;2024-01-11T10:50:00;17.50;75.40
2489;DHT22;1255;48.716;9.124;2024-01-11T10:52:31;18.00;74.00
2489;DHT22;1255;48.716;9.124;2024-01-11T10:55:01;18.10;74.70
2489;DHT22;1255;48.716;9.124;2024-01-11T10:57:33;17.50;74.00
2489;DHT22;1255;48.716;9.124;2024-01-11T11:00:01;17.50;73.60
2489;DHT22;1255;48.716;9.124;2024-01-11T11:02:34;17.20;72.90
2489;DHT22;1255;48.716;9.124;2024-01-11T11:05:02;17.20;74.10
2489;DHT22;1255;48.716;9.124;2024-01-11T11:07:30;18.40;73.60
2489;DHT22;1255;48.716;9.124;2024-01-11T11:09:57;18.30;71.90
2489;DHT22;1255;48.716;9.124;2024-01-11T11:12:25;17.90;72.40
2489;DHT22;1255;48.716;9.124;2024-01-11T11:14:53;17.80;72.60
2489;DHT22;1255;48.716;9.124;2024-01-11T11:17:21;17.90;73.30
2489;DHT22;1255;48.716;9.124;2024-01-11T11:19:47;18.30;72.00
2489;DHT22;1255;48.716;9.124;2024-01-11T11:22:14;18.20;72.10
2489;DHT22;1255;48.716;9.124;2024-01-11T11:24:43;18.10;71.30
2489;DHT22;1255;48.716;9.124;2024-01-11T11:27:13;18.20;71.10
2489;DHT22;1255;48.716;9.124;2024-01-11T11:29:40;17.60;71.60
2489;DHT22;1255;48.716;9.124;2024-01-11T11:32:10;17.70;71.20
2489;DHT22;1255;48.716;9.124;2024-01-11T11:34:40;17.70;70.90
2489;DHT22;1255;48.716;9.124;2024-01-11T11:37:09;17.20;71.40
2489;DHT22;1255;48.716;9.124;2024-01-11T11:39:37;16.30;71.50
2489;DHT22;1255;48.716;9.124;2024-01-11T11:42:04;16.30;72.30
2489;DHT22;1255;48.716;9.124;2024-01-11T11:44:32;15.40;72.60
2489;DHT22;1255;48.716;9.124;2024-01-11T11:47:22;14.80;74.30
2489;DHT22;1255;48.716;9.124;2024-01-11T11:50:06;13.90;74.80
2489;DHT22;1255;48.716;9.124;2024-01-11T11:52:36;13.20;75.90
2489;DHT22;1255;48.716;9.124;2024-01-11T11:55:05;12.70;76.30
2489;DHT22;1255;48.716;9.124;2024-01-11T11:57:33;11.10;78.10
2489;DHT22;1255;48.716;9.124;2024-01-11T12:00:00;10.50;79.80
2489;DHT22;1255;48.716;9.124;2024-01-11T12:02:32;10.20;80.60
2489;DHT22;1255;48.716;9.124;2024-01-11T12:05:01;9.90;82.10
2489;DHT22;1255;48.716;9.124;2024-01-11T12:07:29;9.90;82.70
2489;DHT22;1255;48.716;9.124;2024-01-11T12:09:57;9.90;83.20
2489;DHT22;1255;48.716;9.124;2024-01-11T12:12:25;10.20;82.20
2489;DHT22;1255;48.716;9.124;2024-01-11T12:14:53;10.20;81.70
2489;DHT22;1255;48.716;9.124;2024-01-11T12:17:20;10.10;82.20
2489;DHT22;1255;48.716;9.124;2024-01-11T12:19:48;9.70;83.00
2489;DHT22;1255;48.716;9.124;2024-01-11T12:22:17;9.50;84.30
2489;DHT22;1255;48.716;9.124;2024-01-11T12:24:45;9.00;85.30
2489;DHT22;1255;48.716;9.124;2024-01-11T12:27:12;8.60;86.00
2489;DHT22;1255;48.716;9.124;2024-01-11T12:29:39;8.50;85.80
2489;DHT22;1255;48.716;9.124;2024-01-11T12:32:07;8.50;86.50
2489;DHT22;1255;48.716;9.124;2024-01-11T12:34:36;8.40;86.40
2489;DHT22;1255;48.716;9.124;2024-01-11T12:37:05;8.10;87.50
2489;DHT22;1255;48.716;9.124;2024-01-11T12:39:32;7.90;87.70
2489;DHT22;1255;48.716;9.124;2024-01-11T12:41:58;7.50;88.50
2489;DHT22;1255;48.716;9.124;2024-01-11T12:44:25;7.10;89.30
2489;DHT22;1255;48.716;9.124;2024-01-11T12:46:52;6.70;89.80
2489;DHT22;1255;48.716;9.124;2024-01-11T12:49:19;6.50;90.40
2489;DHT22;1255;48.716;9.124;2024-01-11T12:51:46;6.60;90.40
2489;DHT22;1255;48.716;9.124;2024-01-11T12:54:14;6.60;90.50
2489;DHT22;1255;48.716;9.124;2024-01-11T12:56:44;6.50;90.70
2489;DHT22;1255;48.716;9.124;2024-01-11T12:59:11;6.30;90.60
2489;DHT22;1255;48.716;9.124;2024-01-11T13:01:40;6.20;91.00
2489;DHT22;1255;48.716;9.124;2024-01-11T13:04:09;5.90;91.30
2489;DHT22;1255;48.716;9.124;2024-01-11T13:06:36;5.80;91.70
2489;DHT22;1255;48.716;9.124;2024-01-11T13:09:03;5.50;92.00
2489;DHT22;1255;48.716;9.124;2024-01-11T13:11:31;5.70;92.00
2489;DHT22;1255;48.716;9.124;2024-01-11T13:13:58;5.60;91.80
2489;DHT22;1255;48.716;9.124;2024-01-11T13:16:30;5.50;92.00
2489;DHT22;1255;48.716;9.124;2024-01-11T13:18:57;5.30;92.50
2489;DHT22;1255;48.716;9.124;2024-01-11T13:21:23;5.30;92.50
2489;DHT22;1255;48.716;9.124;2024-01-11T13:23:50;5.20;92.60
2489;DHT22;1255;48.716;9.124;2024-01-11T13:26:17;4.90;92.90
2489;DHT22;1255;48.716;9.124;2024-01-11T13:28:45;4.90;93.10
2489;DHT22;1255;48.716;9.124;2024-01-11T13:31:12;5.00;92.80
2489;DHT22;1255;48.716;9.124;2024-01-11T13:33:38;5.60;92.40
2489;DHT22;1255;48.716;9.124;2024-01-11T13:36:06;6.10;91.80
2489;DHT22;1255;48.716;9.124;2024-01-11T13:38:34;6.50;91.60
2489;DHT22;1255;48.716;9.124;2024-01-11T13:41:01;6.90;91.30
2489;DHT22;1255;48.716;9.124;2024-01-11T13:43:28;7.00;91.00
2489;DHT22;1255;48.716;9.124;2024-01-11T13:45:57;6.60;91.10
2489;DHT22;1255;48.716;9.124;2024-01-11T13:48:24;5.90;91.50
2489;DHT22;1255;48.716;9.124;2024-01-11T13:50:50;5.20;92.20
2489;DHT22;1255;48.716;9.124;2024-01-11T13:53:17;4.40;93.00
2489;DHT22;1255;48.716;9.124;2024-01-11T13:55:44;3.90;93.60
2489;DHT22;1255;48.716;9.124;2024-01-11T13:58:11;3.40;94.30
2489;DHT22;1255;48.716;9.124;2024-01-11T14:00:39;2.90;94.80
2489;DHT22;1255;48.716;9.124;2024-01-11T14:03:07;2.60;95.10
2489;DHT22;1255;48.716;9.124;2024-01-11T14:05:34;2.30;96.20
2489;DHT22;1255;48.716;9.124;2024-01-11T14:08:01;2.10;96.00
2489;DHT22;1255;48.716;9.124;2024-01-11T14:10:31;1.90;96.40
2489;DHT22;1255;48.716;9.124;2024-01-11T14:12:58;1.80;97.00
2489;DHT22;1255;48.716;9.124;2024-01-11T14:15:25;1.70;98.50
2489;DHT22;1255;48.716;9.124;2024-01-11T14:17:51;1.60;98.40
2489;DHT22;1255;48.716;9.124;2024-01-11T14:20:20;1.40;98.80
2489;DHT22;1255;48.716;9.124;2024-01-11T14:22:47;1.40;99.90
2489;DHT22;1255;48.716;9.124;2024-01-11T14:25:15;1.30;99.60
2489;DHT22;1255;48.716;9.124;2024-01-11T14:27:42;1.20;99.30
2489;DHT22;1255;48.716;9.124;2024-01-11T14:30:10;1.10;99.70
2489;DHT22;1255;48.716;9.124;2024-01-11T14:32:37;1.10;99.90
2489;DHT22;1255;48.716;9.124;2024-01-11T14:35:05;1.00;99.90
2489;DHT22;1255;48.716;9.124;2024-01-11T14:37:35;0.90;99.90
2489;DHT22;1255;48.716;9.124;2024-01-11T14:40:03;0.80;99.90
2489;DHT22;1255;48.716;9.124;2024-01-11T14:42:30;0.80;99.90
2489;DHT22;1255;48.716;9.124;2024-01-11T14:44:57;0.80;99.90
2489;DHT22;1255;48.716;9.124;2024-01-11T14:47:23;0.70;99.90
2489;DHT22;1255;48.716;9.124;2024-01-11T14:49:51;0.70;99.90
2489;DHT22;1255;48.716;9.124;2024-01-11T14:52:17;0.60;99.90
2489;DHT22;1255;48.716;9.124;2024-01-11T14:54:46;0.50;99.90
2489;DHT22;1255;48.716;9.124;2024-01-11T14:57:14;0.50;99.90
2489;DHT22;1255;48.716;9.124;2024-01-11T14:59:41;0.40;99.90
2489;DHT22;1255;48.716;9.124;2024-01-11T15:02:08;0.40;99.90
2489;DHT22;1255;48.716;9.124;2024-01-11T15:04:35;0.30;99.90
2489;DHT22;1255;48.716;9.124;2024-01-11T15:07:03;0.10;99.90
2489;DHT22;1255;48.716;9.124;2024-01-11T15:09:30;0.00;99.90
2489;DHT22;1255;48.716;9.124;2024-01-11T15:11:58;0.00;99.90
2489;DHT22;1255;48.716;9.124;2024-01-11T15:14:26;-0.10;99.90
2489;DHT22;1255;48.716;9.124;2024-01-11T15:16:53;-0.10;99.90
2489;DHT22;1255;48.716;9.124;2024-01-11T15:19:20;-0.10;99.90
2489;DHT22;1255;48.716;9.124;2024-01-11T15:21:46;-0.20;99.90
2489;DHT22;1255;48.716;9.124;2024-01-11T15:24:14;-0.30;99.90
2489;DHT22;1255;48.716;9.124;2024-01-11T15:26:40;-0.40;99.90
2489;DHT22;1255;48.716;9.124;2024-01-11T15:29:09;-0.50;99.90
2489;DHT22;1255;48.716;9.124;2024-01-11T15:31:35;-0.50;99.90
2489;DHT22;1255;48.716;9.124;2024-01-11T15:34:05;-0.60;99.90
2489;DHT22;1255;48.716;9.124;2024-01-11T15:36:33;-0.70;99.90
2489;DHT22;1255;48.716;9.124;2024-01-11T15:39:00;-0.70;99.90
2489;DHT22;1255;48.716;9.124;2024-01-11T15:41:28;-0.70;99.90
2489;DHT22;1255;48.716;9.124;2024-01-11T15:43:55;-0.80;99.90
2489;DHT22;1255;48.716;9.124;2024-01-11T15:46:24;-0.90;99.90
2489;DHT22;1255;48.716;9.124;2024-01-11T15:48:51;-0.90;99.90
2489;DHT22;1255;48.716;9.124;2024-01-11T15:51:18;-1.00;99.90
2489;DHT22;1255;48.716;9.124;2024-01-11T15:53:44;-1.10;99.90
2489;DHT22;1255;48.716;9.124;2024-01-11T15:56:12;-1.20;99.90
2489;DHT22;1255;48.716;9.124;2024-01-11T15:58:39;-1.20;99.90
2489;DHT22;1255;48.716;9.124;2024-01-11T16:01:06;-1.30;99.90
2489;DHT22;1255;48.716;9.124;2024-01-11T16:03:34;-1.40;99.90
2489;DHT22;1255;48.716;9.124;2024-01-11T16:06:02;-1.40;99.90